Terminal Aerodrome Forecast
Issued by NWS Sterling, VA

Current Version | Previous Version | Text Only | Print | Product List | Glossary Off
Versions: 1 2 3 4 5 6 7 8 9 10 11 12 13 14 15 16 17 18 19 20 21 22 23 24 25

000
FTUS41 KLWX 301700
TAFDCA
TAF
KDCA 301734Z 3018/3118 17008KT P6SM BKN035
     FM302100 17008KT P6SM SCT050
     FM302300 16007KT P6SM BKN060
     FM311200 20006KT 5SM BR BKN110
     FM311300 20007KT P6SM BKN110=

USA.gov is the U.S. government's official web portal to all federal, state and local government web resources and services.